Main page
METAR-TAF:

METAR-TAF

Airports :

Lawton–Fort Sill Regional Airport

Lawton, Oklahoma, United States

latitude: 34-33-27N, longitude: 098-25-00W, elevation: 1109 ft

Current weather observation

The report was made 18 hours and 36 minutes ago, at 21:53 UTC
Wind 7 mph from variable directions
Temperature 97°F
Humidity 35%
Pressure 29.93 in. Hg
Visibility: 10 miles
Clear sky

METAR: KLAW 142153Z VRB06KT 10SM CLR 36/18 A2993 RMK AO2 SLP121 T03610183

Time: 11:29 (16:29 UTC)

Forecast

The report was made 5 hours and 9 minutes ago, at 11:20 UTC
Forecast valid from 15 at 12 UTC to 16 at 12 UTC
Wind 13 mph from the South/Southeast
Visibility: 6 miles
Few clouds at a height of 25000 ft

TAF: KLAW 151120Z 1512/1612 16011KT P6SM FEW250 AMD NOT SKED

Weather observations and forecasts of more than 4000 airports (METAR and TAF reports).

The available stations are represented by yellow and red dots on the map.

Hover mouse over dot to see the name of the station.

Then click to see weather observations and forecasts.

To change the map : click on the green buttons with a black cross to zoom in, on the green button with a dash to zoom out, or on the green arrows for adjacent maps.


METAR-TAF: